Time;durP1;ratioP1;P1;durP2;ratioP2;P2;SDS_P1;SDS_P2;PMS_P1;PMS_P2;Temp;Humidity;BMP_temperature;BMP_pressure;BME280_temperature;BME280_humidity;BME280_pressure;Samples;Min_cycle;Max_cycle;Signal;HPM_P1;HPM_P2
2023/09/05 00:01:10;;;;;;;3.50;3.30;;;;;;;;;;5013170;28;20424;-73
2023/09/05 00:03:36;;;;;;;3.40;3.30;;;;;;;;;;5024825;28;20423;-73
2023/09/05 00:06:10;;;;;;;4.97;3.70;;;;;;;;;;5024132;28;20438;-73
2023/09/05 00:08:36;;;;;;;3.00;2.90;;;;;;;;;;5035907;28;20494;-73
2023/09/05 00:11:02;;;;;;;3.27;3.17;;;;;;;;;;5025975;28;20469;-72
2023/09/05 00:13:28;;;;;;;3.30;3.30;;;;;;;;;;5025646;28;20427;-73
2023/09/05 00:15:54;;;;;;;2.97;2.87;;;;;;;;;;5025364;28;20454;-74
2023/09/05 00:18:20;;;;;;;3.77;3.67;;;;;;;;;;5017883;28;20463;-74
2023/09/05 00:20:46;;;;;;;2.90;2.80;;;;;;;;;;5028501;28;20478;-73
2023/09/05 00:23:12;;;;;;;3.00;2.80;;;;;;;;;;5045146;28;20591;-73
2023/09/05 00:25:38;;;;;;;4.13;3.20;;;;;;;;;;5027409;28;20437;-73
2023/09/05 00:28:04;;;;;;;2.60;2.43;;;;;;;;;;5013961;28;20467;-73
2023/09/05 00:30:34;;;;;;;2.90;2.80;;;;;;;;;;5027937;28;20438;-73
2023/09/05 00:33:00;;;;;;;3.00;3.00;;;;;;;;;;5017281;28;20873;-73
2023/09/05 00:35:26;;;;;;;3.73;3.40;;;;;;;;;;5027784;28;20782;-72
2023/09/05 00:37:53;;;;;;;4.10;3.90;;;;;;;;;;5014007;28;20524;-72
2023/09/05 00:40:19;;;;;;;2.90;2.90;;;;;;;;;;5039944;28;20483;-73
2023/09/05 00:42:45;;;;;;;3.57;3.37;;;;;;;;;;5039033;28;20427;-73
2023/09/05 00:45:11;;;;;;;3.10;3.00;;;;;;;;;;5038827;28;20839;-73
2023/09/05 00:47:38;;;;;;;2.63;2.43;;;;;;;;;;5025630;28;21237;-73
2023/09/05 00:50:06;;;;;;;3.40;3.17;;;;;;;;;;5022967;28;20497;-73
2023/09/05 00:52:32;;;;;;;3.37;3.17;;;;;;;;;;5026876;28;20533;-73
2023/09/05 00:54:58;;;;;;;3.47;3.27;;;;;;;;;;5045814;28;20521;-73
2023/09/05 00:57:25;;;;;;;3.10;3.00;;;;;;;;;;5012730;28;20963;-73
2023/09/05 00:59:51;;;;;;;3.63;3.47;;;;;;;;;;5025140;28;20503;-73
2023/09/05 01:02:17;;;;;;;5.53;3.67;;;;;;;;;;5007971;28;20469;-73
2023/09/05 01:04:43;;;;;;;3.60;2.50;;;;;;;;;;5032188;28;20439;-73
2023/09/05 01:07:18;;;;;;;3.33;3.23;;;;;;;;;;5028213;28;20430;-73
2023/09/05 01:09:54;;;;;;;3.00;2.73;;;;;;;;;;5025207;28;20441;-72
2023/09/05 01:12:20;;;;;;;3.10;3.00;;;;;;;;;;5023178;28;20436;-73
2023/09/05 01:14:46;;;;;;;2.40;2.40;;;;;;;;;;5028669;28;20496;-73
2023/09/05 01:17:12;;;;;;;2.97;2.83;;;;;;;;;;5018565;28;20506;-73
2023/09/05 01:19:39;;;;;;;3.00;2.90;;;;;;;;;;5019932;28;20438;-73
2023/09/05 01:22:24;;;;;;;3.00;2.90;;;;;;;;;;5016983;28;20458;-73
2023/09/05 01:24:50;;;;;;;2.40;2.40;;;;;;;;;;5027715;28;20909;-73
2023/09/05 01:27:17;;;;;;;3.17;3.07;;;;;;;;;;5029574;28;20511;-74
2023/09/05 01:29:44;;;;;;;5.80;5.60;;;;;;;;;;5046335;28;20433;-72
2023/09/05 01:32:10;;;;;;;3.77;3.67;;;;;;;;;;5019255;28;20529;-73
2023/09/05 01:34:36;;;;;;;2.80;2.70;;;;;;;;;;5035811;28;20469;-73
2023/09/05 01:37:02;;;;;;;2.83;2.83;;;;;;;;;;5017965;28;20936;-72
2023/09/05 01:39:28;;;;;;;2.70;2.70;;;;;;;;;;5035535;28;20465;-73
2023/09/05 01:41:55;;;;;;;2.80;2.60;;;;;;;;;;5006826;28;20612;-73
2023/09/05 01:44:21;;;;;;;2.60;2.40;;;;;;;;;;5042474;28;20791;-73
2023/09/05 01:46:47;;;;;;;2.37;2.10;;;;;;;;;;5019518;28;20485;-73
2023/09/05 01:49:13;;;;;;;3.00;2.80;;;;;;;;;;5043705;28;20461;-73
2023/09/05 01:51:39;;;;;;;2.77;2.67;;;;;;;;;;5031907;28;20796;-73
2023/09/05 01:54:05;;;;;;;3.23;3.03;;;;;;;;;;5026296;28;20423;-73
2023/09/05 01:56:31;;;;;;;2.77;2.67;;;;;;;;;;5029452;28;20428;-73
2023/09/05 01:58:57;;;;;;;2.70;2.70;;;;;;;;;;5026208;28;20791;-72
2023/09/05 02:01:23;;;;;;;3.00;2.90;;;;;;;;;;5021625;28;20956;-73
2023/09/05 02:03:49;;;;;;;3.10;3.00;;;;;;;;;;5029392;28;20513;-73
2023/09/05 02:06:15;;;;;;;2.73;2.50;;;;;;;;;;5006754;28;20443;-73
2023/09/05 02:08:41;;;;;;;3.20;3.10;;;;;;;;;;5013818;28;20679;-73
2023/09/05 02:11:11;;;;;;;3.20;3.00;;;;;;;;;;5030603;28;20434;-73
2023/09/05 02:13:37;;;;;;;3.00;2.90;;;;;;;;;;5019675;28;20519;-73
2023/09/05 02:16:03;;;;;;;2.40;2.40;;;;;;;;;;5019044;28;20438;-73
2023/09/05 02:18:29;;;;;;;2.27;2.23;;;;;;;;;;5018870;28;20434;-73
2023/09/05 02:21:01;;;;;;;2.43;2.43;;;;;;;;;;5026451;28;20574;-73
2023/09/05 02:23:27;;;;;;;2.80;2.60;;;;;;;;;;5032166;28;20455;-73
2023/09/05 02:26:00;;;;;;;3.13;2.93;;;;;;;;;;5021031;28;20443;-73
2023/09/05 02:28:26;;;;;;;2.60;2.60;;;;;;;;;;5044708;28;20828;-74
2023/09/05 02:30:55;;;;;;;2.13;2.13;;;;;;;;;;5019438;28;21028;-72
2023/09/05 02:33:21;;;;;;;2.33;2.23;;;;;;;;;;5023700;28;20435;-73
2023/09/05 02:35:48;;;;;;;2.77;2.77;;;;;;;;;;5014891;28;20436;-73
2023/09/05 02:38:14;;;;;;;3.03;2.73;;;;;;;;;;5015196;28;20513;-74
2023/09/05 02:40:46;;;;;;;2.60;2.50;;;;;;;;;;5019006;28;20554;-72
2023/09/05 02:43:13;;;;;;;3.40;3.23;;;;;;;;;;5008641;28;21010;-73
2023/09/05 02:45:39;;;;;;;2.63;2.53;;;;;;;;;;5030861;28;20463;-73
2023/09/05 02:48:06;;;;;;;3.20;3.00;;;;;;;;;;5006037;28;20470;-73
2023/09/05 02:50:32;;;;;;;3.10;2.97;;;;;;;;;;5033245;28;20926;-72
2023/09/05 02:52:58;;;;;;;2.50;2.50;;;;;;;;;;5020133;28;21964;-73
2023/09/05 02:55:24;;;;;;;2.97;2.70;;;;;;;;;;5014241;28;20664;-73
2023/09/05 02:57:50;;;;;;;3.33;3.13;;;;;;;;;;5019671;28;20470;-73
2023/09/05 03:00:19;;;;;;;2.83;2.73;;;;;;;;;;5021628;28;22004;-73
2023/09/05 03:02:45;;;;;;;3.17;2.90;;;;;;;;;;5024193;28;20441;-73
2023/09/05 03:05:13;;;;;;;3.47;3.17;;;;;;;;;;5024980;28;20430;-73
2023/09/05 03:07:39;;;;;;;2.77;2.77;;;;;;;;;;5028394;28;20454;-73
2023/09/05 03:10:09;;;;;;;2.77;2.70;;;;;;;;;;5015939;28;20447;-73
2023/09/05 03:12:35;;;;;;;2.10;2.10;;;;;;;;;;5026922;28;20443;-72
2023/09/05 03:15:00;;;;;;;3.33;3.20;;;;;;;;;;5014823;28;20975;-72
2023/09/05 03:17:26;;;;;;;2.80;2.80;;;;;;;;;;5028691;28;20438;-73
2023/09/05 03:19:52;;;;;;;4.10;3.87;;;;;;;;;;5024825;28;20433;-73
2023/09/05 03:22:18;;;;;;;2.97;2.87;;;;;;;;;;5037089;28;20484;-73
2023/09/05 03:24:44;;;;;;;3.40;3.30;;;;;;;;;;5012902;28;21070;-73
2023/09/05 03:27:13;;;;;;;3.50;3.30;;;;;;;;;;5027673;28;20434;-73
2023/09/05 03:29:39;;;;;;;3.33;3.23;;;;;;;;;;5024942;28;20514;-73
2023/09/05 03:32:05;;;;;;;3.53;3.43;;;;;;;;;;5032881;28;20603;-73
2023/09/05 03:34:32;;;;;;;3.60;3.50;;;;;;;;;;5027576;28;20449;-74
2023/09/05 03:36:58;;;;;;;3.27;3.17;;;;;;;;;;5030261;28;20845;-72
2023/09/05 03:39:24;;;;;;;3.53;3.30;;;;;;;;;;5023453;28;20464;-73
2023/09/05 03:41:50;;;;;;;3.87;3.77;;;;;;;;;;5023469;28;20476;-73
2023/09/05 03:44:16;;;;;;;3.67;3.47;;;;;;;;;;5019412;28;20459;-73
2023/09/05 03:46:43;;;;;;;3.50;3.30;;;;;;;;;;5039566;28;20447;-73
2023/09/05 03:49:09;;;;;;;3.57;3.40;;;;;;;;;;5020110;28;20514;-73
2023/09/05 03:51:35;;;;;;;3.50;3.13;;;;;;;;;;5032566;28;20442;-73
2023/09/05 03:54:01;;;;;;;4.10;3.20;;;;;;;;;;5014005;28;20431;-73
2023/09/05 03:56:27;;;;;;;3.30;2.87;;;;;;;;;;5023941;28;20436;-73
2023/09/05 03:58:54;;;;;;;3.20;3.10;;;;;;;;;;5028035;28;20776;-74
2023/09/05 04:01:19;;;;;;;5.90;5.70;;;;;;;;;;5030320;28;20426;-71
2023/09/05 04:03:45;;;;;;;3.27;2.90;;;;;;;;;;5029127;28;20503;-72
2023/09/05 04:06:12;;;;;;;2.73;2.73;;;;;;;;;;5012891;28;20431;-73
2023/09/05 04:08:38;;;;;;;2.57;2.57;;;;;;;;;;5012275;28;20462;-73
2023/09/05 04:11:04;;;;;;;2.60;2.60;;;;;;;;;;5027065;28;20427;-72
2023/09/05 04:13:31;;;;;;;2.83;2.83;;;;;;;;;;5028062;28;20453;-73
2023/09/05 04:16:05;;;;;;;2.90;2.80;;;;;;;;;;5025817;28;20492;-73
2023/09/05 04:18:31;;;;;;;2.30;2.30;;;;;;;;;;5029962;28;20437;-73
2023/09/05 04:21:00;;;;;;;3.20;3.20;;;;;;;;;;5027133;28;21178;-73
2023/09/05 04:23:26;;;;;;;6.63;2.70;;;;;;;;;;5021214;28;20446;-74
2023/09/05 04:26:02;;;;;;;3.23;3.23;;;;;;;;;;5025568;28;20446;-72
2023/09/05 04:28:29;;;;;;;3.13;3.10;;;;;;;;;;5022662;28;20453;-74
2023/09/05 04:30:56;;;;;;;3.50;3.20;;;;;;;;;;5027341;28;20427;-72
2023/09/05 04:33:25;;;;;;;4.10;3.33;;;;;;;;;;5026128;28;20580;-72
2023/09/05 04:35:52;;;;;;;2.73;2.70;;;;;;;;;;5028770;28;20441;-72
2023/09/05 04:38:18;;;;;;;2.83;2.77;;;;;;;;;;5024292;28;20457;-73
2023/09/05 04:40:44;;;;;;;3.37;3.17;;;;;;;;;;5024676;28;20588;-73
2023/09/05 04:43:10;;;;;;;4.33;4.03;;;;;;;;;;5023381;28;20435;-72
2023/09/05 04:45:36;;;;;;;3.73;3.43;;;;;;;;;;5021839;28;20450;-72
2023/09/05 04:48:01;;;;;;;3.40;3.40;;;;;;;;;;5024453;28;20485;-72
2023/09/05 04:50:27;;;;;;;5.63;3.60;;;;;;;;;;5031805;28;20434;-73
2023/09/05 04:52:53;;;;;;;4.30;4.00;;;;;;;;;;5023904;28;20501;-73
2023/09/05 04:55:19;;;;;;;5.00;4.20;;;;;;;;;;5017979;28;20435;-73
2023/09/05 04:57:47;;;;;;;6.20;4.07;;;;;;;;;;5032312;28;20437;-72
2023/09/05 05:00:13;;;;;;;4.33;3.80;;;;;;;;;;5024596;28;20866;-73
2023/09/05 05:02:39;;;;;;;3.70;3.50;;;;;;;;;;5027736;28;20528;-73
2023/09/05 05:05:06;;;;;;;3.40;3.30;;;;;;;;;;5035319;28;20488;-72
2023/09/05 05:07:31;;;;;;;3.57;3.33;;;;;;;;;;5025986;28;20458;-72
2023/09/05 05:09:57;;;;;;;4.50;4.10;;;;;;;;;;5025121;28;20514;-73
2023/09/05 05:12:24;;;;;;;7.20;3.90;;;;;;;;;;5019628;28;20504;-73
2023/09/05 05:14:50;;;;;;;6.23;3.50;;;;;;;;;;5014395;28;20949;-73
2023/09/05 05:17:16;;;;;;;3.83;3.57;;;;;;;;;;5018466;28;20454;-72
2023/09/05 05:19:42;;;;;;;4.40;4.20;;;;;;;;;;5020942;28;20463;-72
2023/09/05 05:22:08;;;;;;;3.93;3.77;;;;;;;;;;5026185;28;20450;-73
2023/09/05 05:24:34;;;;;;;4.83;3.77;;;;;;;;;;5018766;28;20455;-73
2023/09/05 05:27:00;;;;;;;3.63;3.53;;;;;;;;;;5017192;28;20430;-72
2023/09/05 05:29:31;;;;;;;4.00;3.70;;;;;;;;;;5009206;28;20471;-73
2023/09/05 05:31:57;;;;;;;8.33;4.37;;;;;;;;;;5010247;28;20436;-72
2023/09/05 05:34:23;;;;;;;4.03;3.80;;;;;;;;;;5006879;28;20522;-73
2023/09/05 05:36:49;;;;;;;4.47;3.77;;;;;;;;;;5008638;28;20447;-74
2023/09/05 05:39:15;;;;;;;4.20;4.00;;;;;;;;;;5008287;28;20986;-73
2023/09/05 05:41:41;;;;;;;4.30;4.20;;;;;;;;;;5006799;28;20492;-72
2023/09/05 05:44:07;;;;;;;4.20;4.00;;;;;;;;;;5009592;28;20471;-73
2023/09/05 05:46:34;;;;;;;4.30;3.93;;;;;;;;;;5014676;28;20523;-73
2023/09/05 05:49:02;;;;;;;4.93;4.60;;;;;;;;;;5009062;28;20918;-73
2023/09/05 05:51:29;;;;;;;13.63;4.97;;;;;;;;;;5020339;28;20433;-73
2023/09/05 05:53:55;;;;;;;10.63;3.83;;;;;;;;;;5014824;28;20922;-73
2023/09/05 05:56:22;;;;;;;4.60;4.20;;;;;;;;;;5011922;28;20435;-73
2023/09/05 05:58:48;;;;;;;4.17;3.97;;;;;;;;;;5016623;28;20807;-73
2023/09/05 06:01:14;;;;;;;4.13;3.83;;;;;;;;;;5007562;28;20450;-74
2023/09/05 06:03:40;;;;;;;3.43;3.20;;;;;;;;;;5007093;28;20439;-73
2023/09/05 06:06:06;;;;;;;3.47;3.37;;;;;;;;;;5010245;28;20451;-72
2023/09/05 06:08:32;;;;;;;3.60;3.40;;;;;;;;;;5007497;28;20601;-73
2023/09/05 06:10:59;;;;;;;3.70;3.40;;;;;;;;;;5013078;28;20449;-73
2023/09/05 06:13:25;;;;;;;24.80;23.00;;;;;;;;;;5029875;28;20755;-73
2023/09/05 06:15:51;;;;;;;4.23;4.00;;;;;;;;;;5026908;28;20436;-73
2023/09/05 06:18:17;;;;;;;5.00;4.50;;;;;;;;;;5025475;28;20486;-73
2023/09/05 06:20:43;;;;;;;3.60;3.40;;;;;;;;;;5032209;28;20929;-74
2023/09/05 06:23:09;;;;;;;3.53;3.10;;;;;;;;;;5030574;28;20512;-73
2023/09/05 06:25:35;;;;;;;3.93;3.60;;;;;;;;;;5022425;28;20489;-73
2023/09/05 06:28:02;;;;;;;2.73;2.63;;;;;;;;;;5030121;28;20454;-72
2023/09/05 06:30:28;;;;;;;5.03;3.23;;;;;;;;;;5035548;28;20446;-73
2023/09/05 06:32:54;;;;;;;4.27;4.00;;;;;;;;;;5016198;28;20427;-74
2023/09/05 06:35:20;;;;;;;3.17;3.00;;;;;;;;;;5036622;28;20431;-73
2023/09/05 06:37:46;;;;;;;4.93;3.33;;;;;;;;;;5017484;28;20486;-73
2023/09/05 06:40:15;;;;;;;3.17;2.90;;;;;;;;;;5017636;28;20928;-74
2023/09/05 06:42:44;;;;;;;4.73;4.30;;;;;;;;;;5019873;28;20442;-73
2023/09/05 06:45:10;;;;;;;3.40;3.20;;;;;;;;;;5021035;28;20438;-74
2023/09/05 06:47:36;;;;;;;9.73;4.23;;;;;;;;;;5032516;28;20968;-73
2023/09/05 06:50:04;;;;;;;3.17;3.07;;;;;;;;;;5027864;28;20980;-73
2023/09/05 06:52:30;;;;;;;5.20;3.40;;;;;;;;;;5034371;28;20834;-73
2023/09/05 06:54:56;;;;;;;5.10;3.33;;;;;;;;;;5031664;28;20449;-73
2023/09/05 06:57:22;;;;;;;3.70;3.50;;;;;;;;;;5015449;28;20426;-74
2023/09/05 06:59:52;;;;;;;3.77;3.20;;;;;;;;;;5024094;28;20439;-74
2023/09/05 07:02:18;;;;;;;6.53;3.60;;;;;;;;;;5024500;28;20442;-73
2023/09/05 07:04:44;;;;;;;3.83;3.60;;;;;;;;;;5022285;28;20447;-73
2023/09/05 07:07:10;;;;;;;3.13;3.03;;;;;;;;;;5031056;28;20500;-73
2023/09/05 07:09:36;;;;;;;5.50;2.93;;;;;;;;;;5023837;28;20434;-74
2023/09/05 07:12:04;;;;;;;2.63;2.63;;;;;;;;;;5030405;28;20457;-73
2023/09/05 07:14:30;;;;;;;3.13;2.93;;;;;;;;;;5028657;28;20449;-75
2023/09/05 07:16:58;;;;;;;3.10;3.00;;;;;;;;;;5029749;28;20518;-75
2023/09/05 07:19:24;;;;;;;3.23;3.10;;;;;;;;;;5010168;28;20574;-75
2023/09/05 07:21:50;;;;;;;2.77;2.67;;;;;;;;;;5008348;28;20420;-74
2023/09/05 07:24:16;;;;;;;3.40;3.10;;;;;;;;;;5017118;28;20943;-73
2023/09/05 07:26:43;;;;;;;3.50;3.30;;;;;;;;;;5026997;28;20442;-73
2023/09/05 07:29:10;;;;;;;3.00;2.83;;;;;;;;;;5028873;28;20526;-74
2023/09/05 07:31:36;;;;;;;5.17;4.07;;;;;;;;;;5009883;28;20477;-74
2023/09/05 07:34:02;;;;;;;9.10;3.60;;;;;;;;;;5016836;28;20426;-74
2023/09/05 07:36:28;;;;;;;8.50;3.37;;;;;;;;;;5025318;28;20427;-75
2023/09/05 07:38:55;;;;;;;20.83;18.93;;;;;;;;;;5037901;28;20462;-75
2023/09/05 07:41:21;;;;;;;3.57;3.37;;;;;;;;;;5015882;28;20431;-74
2023/09/05 07:43:47;;;;;;;3.00;2.90;;;;;;;;;;5016647;28;20958;-74
2023/09/05 07:46:13;;;;;;;3.17;3.07;;;;;;;;;;5009729;28;20806;-74
2023/09/05 07:48:39;;;;;;;2.90;2.90;;;;;;;;;;5018815;28;20509;-73
2023/09/05 07:51:07;;;;;;;3.00;2.80;;;;;;;;;;5018515;28;20443;-74
2023/09/05 07:53:35;;;;;;;3.27;3.00;;;;;;;;;;5021350;28;20459;-75
2023/09/05 07:56:01;;;;;;;2.40;2.40;;;;;;;;;;5009043;28;21196;-73
2023/09/05 07:58:27;;;;;;;1.87;1.87;;;;;;;;;;5015955;28;20437;-74
2023/09/05 08:00:53;;;;;;;2.30;2.30;;;;;;;;;;5010773;28;20442;-74
2023/09/05 08:03:20;;;;;;;2.27;2.17;;;;;;;;;;5015121;28;20860;-74
2023/09/05 08:05:47;;;;;;;2.50;2.50;;;;;;;;;;5007928;28;20438;-74
2023/09/05 08:08:14;;;;;;;1.80;1.80;;;;;;;;;;5014377;28;20485;-74
2023/09/05 08:10:41;;;;;;;1.80;1.80;;;;;;;;;;5011981;28;20439;-75
2023/09/05 08:13:09;;;;;;;2.20;2.20;;;;;;;;;;5020221;28;20442;-74
2023/09/05 08:15:36;;;;;;;2.17;2.17;;;;;;;;;;5026836;28;20520;-73
2023/09/05 08:18:02;;;;;;;1.97;1.90;;;;;;;;;;5014340;28;20442;-74
2023/09/05 08:20:28;;;;;;;1.67;1.67;;;;;;;;;;5025079;28;20438;-74
2023/09/05 08:22:54;;;;;;;1.90;1.80;;;;;;;;;;5020397;28;20827;-73
2023/09/05 08:25:23;;;;;;;1.90;1.90;;;;;;;;;;5018920;28;20486;-74
2023/09/05 08:27:49;;;;;;;1.60;1.60;;;;;;;;;;5016480;28;20549;-73
2023/09/05 08:30:16;;;;;;;1.80;1.80;;;;;;;;;;5017132;28;20604;-74
2023/09/05 08:32:43;;;;;;;3.03;2.17;;;;;;;;;;5018013;28;20509;-74
2023/09/05 08:35:09;;;;;;;2.30;2.30;;;;;;;;;;5018977;28;20449;-74
2023/09/05 08:37:36;;;;;;;1.73;1.63;;;;;;;;;;5028059;28;20757;-74
2023/09/05 08:40:03;;;;;;;1.90;1.90;;;;;;;;;;5016963;28;20658;-74
2023/09/05 08:42:33;;;;;;;1.73;1.70;;;;;;;;;;5019906;28;21146;-73
2023/09/05 08:45:00;;;;;;;2.03;1.87;;;;;;;;;;5019653;28;21008;-73
2023/09/05 08:47:32;;;;;;;2.00;1.40;;;;;;;;;;5023606;28;20433;-75
2023/09/05 08:50:04;;;;;;;1.60;1.60;;;;;;;;;;5019850;28;20519;-74
2023/09/05 08:52:32;;;;;;;1.90;1.80;;;;;;;;;;5014168;28;20968;-73
2023/09/05 08:54:58;;;;;;;1.60;1.60;;;;;;;;;;5011016;28;20438;-74
2023/09/05 08:57:25;;;;;;;1.90;1.80;;;;;;;;;;5013993;28;20452;-76
2023/09/05 08:59:51;;;;;;;1.87;1.87;;;;;;;;;;5017263;28;20534;-75
2023/09/05 09:02:17;;;;;;;7.20;6.70;;;;;;;;;;5016568;28;20737;-74
2023/09/05 09:04:50;;;;;;;1.70;1.60;;;;;;;;;;5011576;28;20952;-74
2023/09/05 09:07:16;;;;;;;1.73;1.60;;;;;;;;;;5013076;28;20443;-74
2023/09/05 09:09:42;;;;;;;1.73;1.63;;;;;;;;;;5012829;28;20949;-74
2023/09/05 09:12:08;;;;;;;1.70;1.63;;;;;;;;;;5013918;28;20803;-73
2023/09/05 09:14:34;;;;;;;1.90;1.80;;;;;;;;;;5019670;28;20810;-74
2023/09/05 09:17:04;;;;;;;1.23;1.23;;;;;;;;;;5017583;28;20861;-73
2023/09/05 09:19:31;;;;;;;1.83;1.80;;;;;;;;;;5022512;28;20449;-73
2023/09/05 09:22:01;;;;;;;1.67;1.67;;;;;;;;;;5013122;28;20441;-74
2023/09/05 09:24:34;;;;;;;1.30;1.30;;;;;;;;;;5019734;28;20446;-74
2023/09/05 09:27:04;;;;;;;1.50;1.50;;;;;;;;;;5015939;28;20996;-73
2023/09/05 09:29:31;;;;;;;1.60;1.50;;;;;;;;;;5020617;28;20575;-74
2023/09/05 09:32:03;;;;;;;1.67;1.67;;;;;;;;;;5017570;28;20812;-74
2023/09/05 09:34:29;;;;;;;1.63;1.50;;;;;;;;;;5017893;28;20437;-73
2023/09/05 09:36:55;;;;;;;1.57;1.57;;;;;;;;;;5015020;28;20466;-73
2023/09/05 09:39:21;;;;;;;1.20;1.20;;;;;;;;;;5021083;28;20844;-74
2023/09/05 09:41:48;;;;;;;1.30;1.30;;;;;;;;;;5019114;28;20431;-74
2023/09/05 09:44:29;;;;;;;1.63;1.53;;;;;;;;;;5015938;28;21482;-73
2023/09/05 09:46:56;;;;;;;1.23;1.23;;;;;;;;;;5013953;28;20449;-74
2023/09/05 09:49:23;;;;;;;1.33;1.30;;;;;;;;;;5015621;28;20462;-74
2023/09/05 09:51:53;;;;;;;2.10;1.30;;;;;;;;;;5011977;28;21252;-77
2023/09/05 09:54:22;;;;;;;1.70;1.70;;;;;;;;;;5015474;28;20969;-75
2023/09/05 09:56:48;;;;;;;2.17;1.30;;;;;;;;;;5015764;28;20548;-74
2023/09/05 09:59:18;;;;;;;1.40;1.40;;;;;;;;;;5008304;28;20451;-74
2023/09/05 10:01:44;;;;;;;1.20;1.13;;;;;;;;;;5017065;28;20434;-74
2023/09/05 10:04:10;;;;;;;1.40;1.40;;;;;;;;;;5003643;28;20442;-74
2023/09/05 10:06:37;;;;;;;1.40;1.30;;;;;;;;;;5014082;28;20431;-74
2023/09/05 10:09:03;;;;;;;1.30;1.30;;;;;;;;;;5016668;28;20465;-73
2023/09/05 10:11:29;;;;;;;1.33;1.33;;;;;;;;;;5017974;28;21047;-74
2023/09/05 10:13:56;;;;;;;1.30;1.30;;;;;;;;;;5013925;28;20512;-74
2023/09/05 10:16:23;;;;;;;1.17;1.17;;;;;;;;;;5015487;28;20447;-74
2023/09/05 10:18:50;;;;;;;1.30;1.30;;;;;;;;;;5019323;28;20441;-77
2023/09/05 10:21:19;;;;;;;2.13;2.03;;;;;;;;;;5016021;28;20433;-79
2023/09/05 10:23:46;;;;;;;1.30;1.30;;;;;;;;;;5019338;28;20456;-73
2023/09/05 10:26:13;;;;;;;1.20;1.20;;;;;;;;;;5015457;28;20787;-74
2023/09/05 10:28:39;;;;;;;1.30;1.30;;;;;;;;;;5024595;28;20527;-74
2023/09/05 10:31:06;;;;;;;1.30;1.30;;;;;;;;;;5015130;28;20478;-72
2023/09/05 10:33:38;;;;;;;0.90;0.90;;;;;;;;;;5016691;28;20494;-74
2023/09/05 10:36:04;;;;;;;1.50;1.40;;;;;;;;;;5015641;28;20789;-73
2023/09/05 10:38:36;;;;;;;1.27;1.27;;;;;;;;;;5024676;28;20449;-74
2023/09/05 10:41:02;;;;;;;1.17;1.10;;;;;;;;;;5015911;28;20834;-73
2023/09/05 10:43:28;;;;;;;1.07;1.07;;;;;;;;;;5017993;28;20422;-74
2023/09/05 10:46:03;;;;;;;1.50;1.50;;;;;;;;;;5013391;28;20487;-74
2023/09/05 10:48:40;;;;;;;1.10;1.10;;;;;;;;;;5016852;28;20974;-75
2023/09/05 10:51:08;;;;;;;1.30;1.30;;;;;;;;;;5014030;28;20549;-74
2023/09/05 10:53:38;;;;;;;1.10;1.10;;;;;;;;;;5023643;28;20479;-73
2023/09/05 10:56:04;;;;;;;1.30;1.30;;;;;;;;;;5021313;28;20533;-74
2023/09/05 10:58:37;;;;;;;1.10;1.10;;;;;;;;;;5009618;28;20750;-73
2023/09/05 11:01:23;;;;;;;1.40;1.40;;;;;;;;;;5017839;28;20462;-74
2023/09/05 11:03:49;;;;;;;3.57;1.20;;;;;;;;;;5011216;28;20442;-74
2023/09/05 11:06:16;;;;;;;1.00;1.00;;;;;;;;;;5008842;28;20976;-74
2023/09/05 11:08:43;;;;;;;1.63;1.63;;;;;;;;;;5016010;28;20488;-73
2023/09/05 11:11:09;;;;;;;5.43;2.63;;;;;;;;;;5023841;28;20431;-75
2023/09/05 11:13:35;;;;;;;1.20;1.20;;;;;;;;;;5011739;28;20438;-76
2023/09/05 11:16:02;;;;;;;1.40;1.40;;;;;;;;;;5020123;28;20433;-75
2023/09/05 11:18:28;;;;;;;1.43;1.30;;;;;;;;;;5014659;28;20491;-74
2023/09/05 11:20:54;;;;;;;1.20;1.20;;;;;;;;;;5012958;28;20453;-79
2023/09/05 11:23:21;;;;;;;1.37;1.33;;;;;;;;;;5013015;28;20438;-77
2023/09/05 11:26:10;;;;;;;1.53;1.53;;;;;;;;;;5015156;28;20980;-77
2023/09/05 11:28:37;;;;;;;1.60;1.60;;;;;;;;;;5015131;28;20497;-78
2023/09/05 11:31:03;;;;;;;4.73;4.33;;;;;;;;;;5019743;28;20434;-78
2023/09/05 11:33:30;;;;;;;1.70;1.70;;;;;;;;;;5026157;28;20876;-77
2023/09/05 11:35:56;;;;;;;2.17;2.07;;;;;;;;;;5029471;28;20840;-77
2023/09/05 11:38:23;;;;;;;2.57;2.50;;;;;;;;;;5027463;28;20450;-75
2023/09/05 11:40:52;;;;;;;2.00;2.00;;;;;;;;;;5020397;28;20862;-76
2023/09/05 11:43:18;;;;;;;1.67;1.67;;;;;;;;;;5031779;28;20425;-75
2023/09/05 11:45:46;;;;;;;1.50;1.40;;;;;;;;;;5020979;28;20408;-74
2023/09/05 11:48:14;;;;;;;1.50;1.50;;;;;;;;;;5021650;28;20458;-74
2023/09/05 11:50:41;;;;;;;1.37;1.37;;;;;;;;;;5022808;28;20450;-75
2023/09/05 11:53:12;;;;;;;1.60;1.60;;;;;;;;;;5017197;28;20439;-75
2023/09/05 11:55:39;;;;;;;1.43;1.43;;;;;;;;;;5020799;28;20415;-75
2023/09/05 11:58:05;;;;;;;1.50;1.50;;;;;;;;;;5017487;28;20466;-75
2023/09/05 12:00:35;;;;;;;1.40;1.30;;;;;;;;;;5025535;28;20434;-75
2023/09/05 12:03:01;;;;;;;1.10;1.10;;;;;;;;;;5014262;28;20852;-74
2023/09/05 12:05:28;;;;;;;1.57;1.57;;;;;;;;;;5026741;28;20438;-74
2023/09/05 12:07:54;;;;;;;1.30;1.30;;;;;;;;;;5028103;28;20840;-76
2023/09/05 12:10:21;;;;;;;1.30;1.30;;;;;;;;;;5023201;28;20895;-73
2023/09/05 12:12:53;;;;;;;3.03;1.50;;;;;;;;;;5022661;28;20461;-75
2023/09/05 12:15:29;;;;;;;3.30;1.27;;;;;;;;;;5023432;28;20481;-74
2023/09/05 12:17:56;;;;;;;1.30;1.23;;;;;;;;;;5024803;28;20438;-75
2023/09/05 12:20:23;;;;;;;1.23;1.23;;;;;;;;;;5018629;28;20450;-75
2023/09/05 12:22:49;;;;;;;1.40;1.30;;;;;;;;;;5023336;28;20458;-75
2023/09/05 12:25:16;;;;;;;1.57;1.47;;;;;;;;;;5028905;28;20419;-76
2023/09/05 12:27:43;;;;;;;2.30;2.20;;;;;;;;;;5021730;28;20465;-74
2023/09/05 12:30:23;;;;;;;1.80;0.90;;;;;;;;;;5019153;28;20458;-76
2023/09/05 12:32:49;;;;;;;1.30;1.30;;;;;;;;;;5017261;28;20497;-75
2023/09/05 12:35:15;;;;;;;1.10;1.10;;;;;;;;;;5013292;28;20440;-75
2023/09/05 12:37:41;;;;;;;1.43;1.43;;;;;;;;;;5026591;28;20460;-74
2023/09/05 12:40:08;;;;;;;2.40;2.30;;;;;;;;;;5023779;28;20462;-75
2023/09/05 12:42:34;;;;;;;1.53;1.43;;;;;;;;;;5024293;28;20985;-75
2023/09/05 12:45:00;;;;;;;1.23;1.23;;;;;;;;;;5030969;28;20446;-75
2023/09/05 12:47:26;;;;;;;1.97;1.97;;;;;;;;;;5026357;28;20546;-74
2023/09/05 12:49:54;;;;;;;1.20;1.20;;;;;;;;;;5019055;28;20473;-76
2023/09/05 12:52:22;;;;;;;1.20;1.20;;;;;;;;;;5023052;28;20529;-75
2023/09/05 12:54:49;;;;;;;1.77;1.77;;;;;;;;;;5015049;28;20461;-76
2023/09/05 12:57:15;;;;;;;2.73;2.63;;;;;;;;;;5019584;28;20935;-76
2023/09/05 12:59:41;;;;;;;1.53;1.53;;;;;;;;;;5022473;28;20441;-77
2023/09/05 13:02:07;;;;;;;1.17;1.17;;;;;;;;;;5028491;28;20538;-75
2023/09/05 13:04:33;;;;;;;1.87;1.87;;;;;;;;;;5022225;28;20431;-77
2023/09/05 13:06:59;;;;;;;1.63;1.63;;;;;;;;;;5024419;28;20463;-76
2023/09/05 13:09:25;;;;;;;1.10;1.10;;;;;;;;;;5037510;28;20847;-75
2023/09/05 13:11:51;;;;;;;1.43;1.40;;;;;;;;;;5022750;28;20431;-76
2023/09/05 13:14:18;;;;;;;1.10;1.10;;;;;;;;;;5030262;28;20438;-75
2023/09/05 13:16:44;;;;;;;1.60;1.50;;;;;;;;;;5023102;28;20443;-75
2023/09/05 13:19:09;;;;;;;1.50;1.50;;;;;;;;;;5021764;28;21057;-76
2023/09/05 13:21:36;;;;;;;1.30;1.20;;;;;;;;;;5037892;28;20451;-76
2023/09/05 13:24:02;;;;;;;1.13;1.13;;;;;;;;;;5022023;28;20447;-76
2023/09/05 13:26:29;;;;;;;1.67;1.40;;;;;;;;;;5034532;28;20446;-74
2023/09/05 13:28:55;;;;;;;1.07;1.07;;;;;;;;;;5015844;28;20563;-74
2023/09/05 13:31:21;;;;;;;1.10;1.10;;;;;;;;;;5021880;28;20450;-75
2023/09/05 13:33:48;;;;;;;2.87;1.17;;;;;;;;;;5025737;28;20441;-75
2023/09/05 13:36:14;;;;;;;1.07;1.07;;;;;;;;;;5027215;28;20598;-76
2023/09/05 13:38:40;;;;;;;1.57;1.47;;;;;;;;;;5025194;28;20482;-74
2023/09/05 13:41:06;;;;;;;1.20;1.17;;;;;;;;;;5027454;28;20539;-75
2023/09/05 13:43:33;;;;;;;1.30;1.30;;;;;;;;;;5028654;28;20430;-75
2023/09/05 13:45:59;;;;;;;1.50;1.50;;;;;;;;;;5029895;28;20438;-75
2023/09/05 13:48:26;;;;;;;1.50;1.40;;;;;;;;;;5025184;28;20929;-75
2023/09/05 13:50:52;;;;;;;1.30;1.30;;;;;;;;;;5031204;28;20501;-75
2023/09/05 13:53:19;;;;;;;1.30;1.30;;;;;;;;;;5021856;28;20431;-74
2023/09/05 13:55:46;;;;;;;2.27;1.60;;;;;;;;;;5021595;28;20446;-75
2023/09/05 13:58:12;;;;;;;1.23;1.23;;;;;;;;;;5029345;28;20452;-75
2023/09/05 14:00:38;;;;;;;1.43;1.43;;;;;;;;;;5026111;28;20965;-74
2023/09/05 14:03:04;;;;;;;1.60;1.60;;;;;;;;;;5020777;28;21020;-74
2023/09/05 14:05:30;;;;;;;2.00;1.50;;;;;;;;;;5016587;28;20434;-75
2023/09/05 14:07:56;;;;;;;1.50;1.20;;;;;;;;;;5025929;28;20470;-75
2023/09/05 14:10:22;;;;;;;1.70;1.60;;;;;;;;;;5024428;28;20419;-75
2023/09/05 14:12:48;;;;;;;1.50;1.50;;;;;;;;;;5033453;28;20526;-75
2023/09/05 14:15:14;;;;;;;1.77;1.67;;;;;;;;;;5015903;28;20432;-74
2023/09/05 14:17:41;;;;;;;2.10;2.00;;;;;;;;;;5039212;28;20439;-75
2023/09/05 14:20:08;;;;;;;1.50;1.50;;;;;;;;;;5012276;28;20445;-74
2023/09/05 14:22:34;;;;;;;1.57;1.47;;;;;;;;;;5019579;28;20452;-74
2023/09/05 14:25:00;;;;;;;1.10;1.10;;;;;;;;;;5018733;28;20942;-74
2023/09/05 14:27:26;;;;;;;1.40;1.40;;;;;;;;;;5027876;28;20804;-75
2023/09/05 14:29:52;;;;;;;1.90;1.80;;;;;;;;;;5026785;28;20476;-76
2023/09/05 14:32:18;;;;;;;3.13;1.63;;;;;;;;;;5017793;28;20447;-75
2023/09/05 14:34:44;;;;;;;1.20;1.20;;;;;;;;;;5015644;28;20509;-76
2023/09/05 14:37:10;;;;;;;1.63;1.60;;;;;;;;;;5026503;28;21354;-75
2023/09/05 14:39:36;;;;;;;1.50;1.50;;;;;;;;;;5016866;28;20454;-76
2023/09/05 14:42:02;;;;;;;1.50;1.50;;;;;;;;;;5017025;28;20426;-76